sensor_id;sensor_type;location;lat;lon;timestamp;P1;durP1;ratioP1;P2;durP2;ratioP2
14778;SDS011;7481;53.750;10.570;2023-05-07T00:00:18;12.43;;;9.30;;
14778;SDS011;7481;53.750;10.570;2023-05-07T00:03:05;12.07;;;9.47;;
14778;SDS011;7481;53.750;10.570;2023-05-07T00:05:53;10.80;;;9.07;;
14778;SDS011;7481;53.750;10.570;2023-05-07T00:08:40;12.97;;;9.70;;
14778;SDS011;7481;53.750;10.570;2023-05-07T00:11:28;12.40;;;9.10;;
14778;SDS011;7481;53.750;10.570;2023-05-07T00:14:15;12.17;;;9.40;;
14778;SDS011;7481;53.750;10.570;2023-05-07T00:17:03;13.40;;;10.07;;
14778;SDS011;7481;53.750;10.570;2023-05-07T00:19:50;13.73;;;10.60;;
14778;SDS011;7481;53.750;10.570;2023-05-07T00:22:37;12.70;;;10.27;;
14778;SDS011;7481;53.750;10.570;2023-05-07T00:25:25;13.73;;;10.77;;
14778;SDS011;7481;53.750;10.570;2023-05-07T00:28:12;15.10;;;10.20;;
14778;SDS011;7481;53.750;10.570;2023-05-07T00:31:00;14.80;;;10.63;;
14778;SDS011;7481;53.750;10.570;2023-05-07T00:33:47;14.40;;;11.03;;
14778;SDS011;7481;53.750;10.570;2023-05-07T00:36:34;13.63;;;10.57;;
14778;SDS011;7481;53.750;10.570;2023-05-07T00:39:22;13.70;;;10.30;;
14778;SDS011;7481;53.750;10.570;2023-05-07T00:42:09;14.20;;;11.33;;
14778;SDS011;7481;53.750;10.570;2023-05-07T00:44:57;11.70;;;10.00;;
14778;SDS011;7481;53.750;10.570;2023-05-07T00:47:44;14.80;;;9.87;;
14778;SDS011;7481;53.750;10.570;2023-05-07T00:50:31;13.93;;;10.30;;
14778;SDS011;7481;53.750;10.570;2023-05-07T00:53:19;17.20;;;11.83;;
14778;SDS011;7481;53.750;10.570;2023-05-07T00:56:07;15.23;;;11.77;;
14778;SDS011;7481;53.750;10.570;2023-05-07T00:58:55;14.23;;;10.97;;
14778;SDS011;7481;53.750;10.570;2023-05-07T01:01:42;13.47;;;10.70;;
14778;SDS011;7481;53.750;10.570;2023-05-07T01:04:30;16.90;;;12.57;;
14778;SDS011;7481;53.750;10.570;2023-05-07T01:07:18;15.27;;;11.97;;
14778;SDS011;7481;53.750;10.570;2023-05-07T01:10:06;15.10;;;11.97;;
14778;SDS011;7481;53.750;10.570;2023-05-07T01:12:53;15.77;;;11.53;;
14778;SDS011;7481;53.750;10.570;2023-05-07T01:15:41;17.20;;;13.30;;
14778;SDS011;7481;53.750;10.570;2023-05-07T01:18:29;17.40;;;11.97;;
14778;SDS011;7481;53.750;10.570;2023-05-07T01:21:17;15.03;;;11.93;;
14778;SDS011;7481;53.750;10.570;2023-05-07T01:24:04;15.63;;;12.27;;
14778;SDS011;7481;53.750;10.570;2023-05-07T01:26:52;15.50;;;12.17;;
14778;SDS011;7481;53.750;10.570;2023-05-07T01:29:40;15.23;;;12.53;;
14778;SDS011;7481;53.750;10.570;2023-05-07T01:32:28;15.17;;;11.60;;
14778;SDS011;7481;53.750;10.570;2023-05-07T01:35:19;14.67;;;11.27;;
14778;SDS011;7481;53.750;10.570;2023-05-07T01:38:08;14.83;;;11.90;;
14778;SDS011;7481;53.750;10.570;2023-05-07T01:40:56;15.13;;;12.13;;
14778;SDS011;7481;53.750;10.570;2023-05-07T01:43:44;17.10;;;12.10;;
14778;SDS011;7481;53.750;10.570;2023-05-07T01:46:31;16.17;;;12.57;;
14778;SDS011;7481;53.750;10.570;2023-05-07T01:49:19;17.10;;;12.50;;
14778;SDS011;7481;53.750;10.570;2023-05-07T01:52:07;19.77;;;13.07;;
14778;SDS011;7481;53.750;10.570;2023-05-07T01:54:55;16.60;;;12.10;;
14778;SDS011;7481;53.750;10.570;2023-05-07T01:57:43;16.37;;;11.93;;
14778;SDS011;7481;53.750;10.570;2023-05-07T02:00:30;15.97;;;12.30;;
14778;SDS011;7481;53.750;10.570;2023-05-07T02:03:18;15.30;;;12.13;;
14778;SDS011;7481;53.750;10.570;2023-05-07T02:06:05;15.40;;;12.10;;
14778;SDS011;7481;53.750;10.570;2023-05-07T02:08:52;16.87;;;11.97;;
14778;SDS011;7481;53.750;10.570;2023-05-07T02:11:40;15.20;;;12.07;;
14778;SDS011;7481;53.750;10.570;2023-05-07T02:14:27;14.90;;;11.20;;
14778;SDS011;7481;53.750;10.570;2023-05-07T02:17:15;17.13;;;11.63;;
14778;SDS011;7481;53.750;10.570;2023-05-07T02:20:02;16.27;;;11.13;;
14778;SDS011;7481;53.750;10.570;2023-05-07T02:22:50;11.73;;;9.53;;
14778;SDS011;7481;53.750;10.570;2023-05-07T02:25:37;11.63;;;9.43;;
14778;SDS011;7481;53.750;10.570;2023-05-07T02:28:25;13.60;;;9.67;;
14778;SDS011;7481;53.750;10.570;2023-05-07T02:31:12;12.73;;;9.53;;
14778;SDS011;7481;53.750;10.570;2023-05-07T02:34:00;11.23;;;8.93;;
14778;SDS011;7481;53.750;10.570;2023-05-07T02:36:48;11.53;;;9.40;;
14778;SDS011;7481;53.750;10.570;2023-05-07T02:39:35;11.10;;;8.27;;
14778;SDS011;7481;53.750;10.570;2023-05-07T02:42:23;9.70;;;7.33;;
14778;SDS011;7481;53.750;10.570;2023-05-07T02:45:10;11.00;;;8.37;;
14778;SDS011;7481;53.750;10.570;2023-05-07T02:47:58;11.23;;;8.07;;
14778;SDS011;7481;53.750;10.570;2023-05-07T02:50:45;10.17;;;7.60;;
14778;SDS011;7481;53.750;10.570;2023-05-07T02:53:33;9.83;;;7.80;;
14778;SDS011;7481;53.750;10.570;2023-05-07T02:56:20;10.80;;;7.80;;
14778;SDS011;7481;53.750;10.570;2023-05-07T02:59:08;9.47;;;7.53;;
14778;SDS011;7481;53.750;10.570;2023-05-07T03:01:55;9.67;;;7.70;;
14778;SDS011;7481;53.750;10.570;2023-05-07T03:04:42;9.90;;;7.50;;
14778;SDS011;7481;53.750;10.570;2023-05-07T03:07:30;8.33;;;7.27;;
14778;SDS011;7481;53.750;10.570;2023-05-07T03:10:17;8.63;;;6.60;;
14778;SDS011;7481;53.750;10.570;2023-05-07T03:13:05;9.03;;;7.07;;
14778;SDS011;7481;53.750;10.570;2023-05-07T03:15:52;9.03;;;7.20;;
14778;SDS011;7481;53.750;10.570;2023-05-07T03:18:40;10.23;;;7.03;;
14778;SDS011;7481;53.750;10.570;2023-05-07T03:21:27;12.47;;;7.57;;
14778;SDS011;7481;53.750;10.570;2023-05-07T03:24:15;9.30;;;7.17;;
14778;SDS011;7481;53.750;10.570;2023-05-07T03:27:02;9.63;;;7.53;;
14778;SDS011;7481;53.750;10.570;2023-05-07T03:29:49;9.50;;;7.03;;
14778;SDS011;7481;53.750;10.570;2023-05-07T03:32:37;9.43;;;7.33;;
14778;SDS011;7481;53.750;10.570;2023-05-07T03:35:24;10.57;;;7.73;;
14778;SDS011;7481;53.750;10.570;2023-05-07T03:38:11;8.13;;;7.00;;
14778;SDS011;7481;53.750;10.570;2023-05-07T03:40:59;9.13;;;7.47;;
14778;SDS011;7481;53.750;10.570;2023-05-07T03:43:46;11.03;;;8.20;;
14778;SDS011;7481;53.750;10.570;2023-05-07T03:46:34;9.47;;;7.60;;
14778;SDS011;7481;53.750;10.570;2023-05-07T03:49:21;9.10;;;7.37;;
14778;SDS011;7481;53.750;10.570;2023-05-07T03:52:08;10.73;;;7.73;;
14778;SDS011;7481;53.750;10.570;2023-05-07T03:54:56;9.80;;;6.70;;
14778;SDS011;7481;53.750;10.570;2023-05-07T03:57:43;9.30;;;7.27;;
14778;SDS011;7481;53.750;10.570;2023-05-07T04:00:31;10.50;;;7.80;;
14778;SDS011;7481;53.750;10.570;2023-05-07T04:03:23;9.27;;;7.80;;
14778;SDS011;7481;53.750;10.570;2023-05-07T04:06:11;10.30;;;6.93;;
14778;SDS011;7481;53.750;10.570;2023-05-07T04:08:58;8.80;;;7.00;;
14778;SDS011;7481;53.750;10.570;2023-05-07T04:11:46;8.53;;;7.27;;
14778;SDS011;7481;53.750;10.570;2023-05-07T04:14:33;9.77;;;8.10;;
14778;SDS011;7481;53.750;10.570;2023-05-07T04:17:21;12.53;;;8.63;;
14778;SDS011;7481;53.750;10.570;2023-05-07T04:20:09;9.10;;;7.63;;
14778;SDS011;7481;53.750;10.570;2023-05-07T04:22:57;11.53;;;8.50;;
14778;SDS011;7481;53.750;10.570;2023-05-07T04:25:44;10.23;;;7.60;;
14778;SDS011;7481;53.750;10.570;2023-05-07T04:28:32;10.33;;;8.40;;
14778;SDS011;7481;53.750;10.570;2023-05-07T04:31:19;11.10;;;8.43;;
14778;SDS011;7481;53.750;10.570;2023-05-07T04:34:08;10.63;;;8.00;;
14778;SDS011;7481;53.750;10.570;2023-05-07T04:36:57;11.67;;;8.27;;
14778;SDS011;7481;53.750;10.570;2023-05-07T04:39:45;8.40;;;7.40;;
14778;SDS011;7481;53.750;10.570;2023-05-07T04:42:32;11.30;;;7.63;;
14778;SDS011;7481;53.750;10.570;2023-05-07T04:45:19;10.63;;;7.80;;
14778;SDS011;7481;53.750;10.570;2023-05-07T04:48:08;11.43;;;7.90;;
14778;SDS011;7481;53.750;10.570;2023-05-07T04:50:56;10.37;;;8.27;;
14778;SDS011;7481;53.750;10.570;2023-05-07T04:53:43;9.93;;;7.00;;
14778;SDS011;7481;53.750;10.570;2023-05-07T04:56:31;11.13;;;7.53;;
14778;SDS011;7481;53.750;10.570;2023-05-07T04:59:18;10.00;;;8.17;;
14778;SDS011;7481;53.750;10.570;2023-05-07T05:02:06;9.57;;;7.87;;
14778;SDS011;7481;53.750;10.570;2023-05-07T05:04:53;9.87;;;7.30;;
14778;SDS011;7481;53.750;10.570;2023-05-07T05:07:41;9.30;;;7.80;;
14778;SDS011;7481;53.750;10.570;2023-05-07T05:10:28;11.00;;;7.57;;
14778;SDS011;7481;53.750;10.570;2023-05-07T05:13:15;9.67;;;7.17;;
14778;SDS011;7481;53.750;10.570;2023-05-07T05:16:03;10.33;;;7.70;;
14778;SDS011;7481;53.750;10.570;2023-05-07T05:18:51;9.07;;;7.47;;
14778;SDS011;7481;53.750;10.570;2023-05-07T05:21:40;9.97;;;7.30;;
14778;SDS011;7481;53.750;10.570;2023-05-07T05:24:27;9.57;;;7.13;;
14778;SDS011;7481;53.750;10.570;2023-05-07T05:27:15;8.17;;;6.70;;
14778;SDS011;7481;53.750;10.570;2023-05-07T05:30:03;9.20;;;7.13;;
14778;SDS011;7481;53.750;10.570;2023-05-07T05:32:50;7.43;;;6.37;;
14778;SDS011;7481;53.750;10.570;2023-05-07T05:35:38;9.93;;;7.33;;
14778;SDS011;7481;53.750;10.570;2023-05-07T05:38:25;8.67;;;6.17;;
14778;SDS011;7481;53.750;10.570;2023-05-07T05:41:13;9.20;;;7.23;;
14778;SDS011;7481;53.750;10.570;2023-05-07T05:44:00;8.10;;;6.50;;
14778;SDS011;7481;53.750;10.570;2023-05-07T05:46:47;8.13;;;6.97;;
14778;SDS011;7481;53.750;10.570;2023-05-07T05:49:36;9.17;;;6.93;;
14778;SDS011;7481;53.750;10.570;2023-05-07T05:52:23;8.67;;;6.67;;
14778;SDS011;7481;53.750;10.570;2023-05-07T05:55:11;8.90;;;6.80;;
14778;SDS011;7481;53.750;10.570;2023-05-07T05:57:59;9.73;;;6.87;;
14778;SDS011;7481;53.750;10.570;2023-05-07T06:00:47;7.93;;;6.47;;
14778;SDS011;7481;53.750;10.570;2023-05-07T06:03:34;8.90;;;6.77;;
14778;SDS011;7481;53.750;10.570;2023-05-07T06:06:22;9.70;;;7.03;;
14778;SDS011;7481;53.750;10.570;2023-05-07T06:09:09;8.03;;;6.80;;
14778;SDS011;7481;53.750;10.570;2023-05-07T06:11:56;8.70;;;6.47;;
14778;SDS011;7481;53.750;10.570;2023-05-07T06:14:46;8.63;;;7.20;;
14778;SDS011;7481;53.750;10.570;2023-05-07T06:17:34;8.43;;;6.90;;
14778;SDS011;7481;53.750;10.570;2023-05-07T06:20:21;8.17;;;6.97;;
14778;SDS011;7481;53.750;10.570;2023-05-07T06:23:08;9.97;;;6.77;;
14778;SDS011;7481;53.750;10.570;2023-05-07T06:25:56;8.17;;;7.07;;
14778;SDS011;7481;53.750;10.570;2023-05-07T06:28:43;8.83;;;6.17;;
14778;SDS011;7481;53.750;10.570;2023-05-07T06:31:30;8.17;;;5.90;;
14778;SDS011;7481;53.750;10.570;2023-05-07T06:34:18;8.20;;;5.90;;
14778;SDS011;7481;53.750;10.570;2023-05-07T06:37:06;7.77;;;6.07;;
14778;SDS011;7481;53.750;10.570;2023-05-07T06:39:53;8.20;;;6.20;;
14778;SDS011;7481;53.750;10.570;2023-05-07T06:42:43;5.90;;;5.30;;
14778;SDS011;7481;53.750;10.570;2023-05-07T06:45:30;6.70;;;4.90;;
14778;SDS011;7481;53.750;10.570;2023-05-07T06:48:18;7.60;;;5.17;;
14778;SDS011;7481;53.750;10.570;2023-05-07T06:51:05;6.23;;;4.90;;
14778;SDS011;7481;53.750;10.570;2023-05-07T06:53:53;6.67;;;5.27;;
14778;SDS011;7481;53.750;10.570;2023-05-07T06:56:40;6.43;;;5.27;;
14778;SDS011;7481;53.750;10.570;2023-05-07T06:59:28;6.93;;;5.30;;
14778;SDS011;7481;53.750;10.570;2023-05-07T07:02:15;7.07;;;5.30;;
14778;SDS011;7481;53.750;10.570;2023-05-07T07:05:04;7.70;;;5.70;;
14778;SDS011;7481;53.750;10.570;2023-05-07T07:07:51;6.10;;;5.50;;
14778;SDS011;7481;53.750;10.570;2023-05-07T07:10:39;6.60;;;5.80;;
14778;SDS011;7481;53.750;10.570;2023-05-07T07:13:26;6.10;;;5.10;;
14778;SDS011;7481;53.750;10.570;2023-05-07T07:16:14;6.20;;;5.10;;
14778;SDS011;7481;53.750;10.570;2023-05-07T07:19:01;5.40;;;4.90;;
14778;SDS011;7481;53.750;10.570;2023-05-07T07:21:49;6.17;;;5.10;;
14778;SDS011;7481;53.750;10.570;2023-05-07T07:24:36;6.57;;;5.33;;
14778;SDS011;7481;53.750;10.570;2023-05-07T07:27:23;5.70;;;4.70;;
14778;SDS011;7481;53.750;10.570;2023-05-07T07:30:11;5.10;;;4.60;;
14778;SDS011;7481;53.750;10.570;2023-05-07T07:32:58;4.90;;;4.40;;
14778;SDS011;7481;53.750;10.570;2023-05-07T07:35:49;6.53;;;4.53;;
14778;SDS011;7481;53.750;10.570;2023-05-07T07:38:37;6.53;;;4.70;;
14778;SDS011;7481;53.750;10.570;2023-05-07T07:41:24;5.33;;;4.83;;
14778;SDS011;7481;53.750;10.570;2023-05-07T07:44:12;5.50;;;4.90;;
14778;SDS011;7481;53.750;10.570;2023-05-07T07:47:01;6.87;;;5.17;;
14778;SDS011;7481;53.750;10.570;2023-05-07T07:49:49;6.20;;;5.40;;
14778;SDS011;7481;53.750;10.570;2023-05-07T07:52:36;6.10;;;5.27;;
14778;SDS011;7481;53.750;10.570;2023-05-07T07:55:24;6.70;;;5.60;;
14778;SDS011;7481;53.750;10.570;2023-05-07T07:58:12;6.40;;;5.50;;
14778;SDS011;7481;53.750;10.570;2023-05-07T08:01:00;7.07;;;5.73;;
14778;SDS011;7481;53.750;10.570;2023-05-07T08:03:47;8.87;;;5.00;;
14778;SDS011;7481;53.750;10.570;2023-05-07T08:06:34;6.03;;;5.43;;
14778;SDS011;7481;53.750;10.570;2023-05-07T08:09:22;5.73;;;5.13;;
14778;SDS011;7481;53.750;10.570;2023-05-07T08:12:09;6.80;;;5.67;;
14778;SDS011;7481;53.750;10.570;2023-05-07T08:14:57;6.67;;;5.97;;
14778;SDS011;7481;53.750;10.570;2023-05-07T08:17:44;8.47;;;5.20;;
14778;SDS011;7481;53.750;10.570;2023-05-07T08:20:32;6.90;;;5.63;;
14778;SDS011;7481;53.750;10.570;2023-05-07T08:23:20;7.03;;;5.07;;
14778;SDS011;7481;53.750;10.570;2023-05-07T08:26:07;7.03;;;4.83;;
14778;SDS011;7481;53.750;10.570;2023-05-07T08:28:55;5.60;;;5.00;;
14778;SDS011;7481;53.750;10.570;2023-05-07T08:31:42;6.13;;;5.53;;
14778;SDS011;7481;53.750;10.570;2023-05-07T08:34:30;5.20;;;4.70;;
14778;SDS011;7481;53.750;10.570;2023-05-07T08:37:17;5.77;;;4.83;;
14778;SDS011;7481;53.750;10.570;2023-05-07T08:40:04;6.00;;;5.20;;
14778;SDS011;7481;53.750;10.570;2023-05-07T08:42:56;5.40;;;4.90;;
14778;SDS011;7481;53.750;10.570;2023-05-07T08:45:45;5.53;;;4.87;;
14778;SDS011;7481;53.750;10.570;2023-05-07T08:48:33;6.10;;;5.10;;
14778;SDS011;7481;53.750;10.570;2023-05-07T08:51:20;5.93;;;5.23;;
14778;SDS011;7481;53.750;10.570;2023-05-07T08:54:08;5.80;;;4.93;;
14778;SDS011;7481;53.750;10.570;2023-05-07T08:56:56;6.50;;;4.90;;
14778;SDS011;7481;53.750;10.570;2023-05-07T08:59:43;6.87;;;5.67;;
14778;SDS011;7481;53.750;10.570;2023-05-07T09:02:31;5.13;;;4.63;;
14778;SDS011;7481;53.750;10.570;2023-05-07T09:05:18;4.80;;;4.27;;
14778;SDS011;7481;53.750;10.570;2023-05-07T09:08:06;6.57;;;4.90;;
14778;SDS011;7481;53.750;10.570;2023-05-07T09:10:54;5.40;;;4.70;;
14778;SDS011;7481;53.750;10.570;2023-05-07T09:13:42;4.93;;;4.43;;
14778;SDS011;7481;53.750;10.570;2023-05-07T09:16:30;5.00;;;4.50;;
14778;SDS011;7481;53.750;10.570;2023-05-07T09:19:21;4.90;;;4.23;;
14778;SDS011;7481;53.750;10.570;2023-05-07T09:22:09;7.00;;;4.30;;
14778;SDS011;7481;53.750;10.570;2023-05-07T09:24:56;4.60;;;4.20;;
14778;SDS011;7481;53.750;10.570;2023-05-07T09:27:44;8.67;;;5.80;;
14778;SDS011;7481;53.750;10.570;2023-05-07T09:30:31;5.70;;;4.33;;
14778;SDS011;7481;53.750;10.570;2023-05-07T09:33:19;4.67;;;4.23;;
14778;SDS011;7481;53.750;10.570;2023-05-07T09:36:07;6.47;;;5.00;;
14778;SDS011;7481;53.750;10.570;2023-05-07T09:38:55;4.77;;;4.33;;
14778;SDS011;7481;53.750;10.570;2023-05-07T09:41:43;4.90;;;4.00;;
14778;SDS011;7481;53.750;10.570;2023-05-07T09:44:31;4.87;;;4.37;;
14778;SDS011;7481;53.750;10.570;2023-05-07T09:47:19;4.43;;;3.80;;
14778;SDS011;7481;53.750;10.570;2023-05-07T09:50:08;4.27;;;3.87;;
14778;SDS011;7481;53.750;10.570;2023-05-07T09:52:55;5.03;;;3.73;;
14778;SDS011;7481;53.750;10.570;2023-05-07T09:55:43;6.53;;;3.90;;
14778;SDS011;7481;53.750;10.570;2023-05-07T09:58:31;5.37;;;3.50;;
14778;SDS011;7481;53.750;10.570;2023-05-07T10:01:19;6.40;;;4.07;;
14778;SDS011;7481;53.750;10.570;2023-05-07T10:04:09;4.23;;;3.83;;
14778;SDS011;7481;53.750;10.570;2023-05-07T10:06:57;4.57;;;3.97;;
14778;SDS011;7481;53.750;10.570;2023-05-07T10:09:44;5.47;;;3.80;;
14778;SDS011;7481;53.750;10.570;2023-05-07T10:12:35;4.57;;;3.70;;
14778;SDS011;7481;53.750;10.570;2023-05-07T10:15:25;5.00;;;3.40;;
14778;SDS011;7481;53.750;10.570;2023-05-07T10:18:13;5.17;;;3.30;;
14778;SDS011;7481;53.750;10.570;2023-05-07T10:21:02;4.03;;;3.13;;
14778;SDS011;7481;53.750;10.570;2023-05-07T10:23:53;3.40;;;3.03;;
14778;SDS011;7481;53.750;10.570;2023-05-07T10:26:43;4.33;;;3.00;;
14778;SDS011;7481;53.750;10.570;2023-05-07T10:32:38;3.10;;;2.83;;
14778;SDS011;7481;53.750;10.570;2023-05-07T10:35:29;3.60;;;3.30;;
14778;SDS011;7481;53.750;10.570;2023-05-07T10:38:18;3.25;;;2.85;;
14778;SDS011;7481;53.750;10.570;2023-05-07T10:41:05;4.60;;;3.22;;
14778;SDS011;7481;53.750;10.570;2023-05-07T10:43:53;2.85;;;2.65;;
14778;SDS011;7481;53.750;10.570;2023-05-07T10:46:41;3.63;;;3.25;;
14778;SDS011;7481;53.750;10.570;2023-05-07T10:49:28;3.67;;;2.95;;
14778;SDS011;7481;53.750;10.570;2023-05-07T10:52:16;2.83;;;2.63;;
14778;SDS011;7481;53.750;10.570;2023-05-07T11:01:46;3.72;;;2.53;;
14778;SDS011;7481;53.750;10.570;2023-05-07T11:04:25;2.92;;;2.58;;
14778;SDS011;7481;53.750;10.570;2023-05-07T11:07:20;2.63;;;2.40;;
14778;SDS011;7481;53.750;10.570;2023-05-07T11:10:08;3.20;;;2.58;;
14778;SDS011;7481;53.750;10.570;2023-05-07T11:12:55;3.03;;;2.38;;
14778;SDS011;7481;53.750;10.570;2023-05-07T11:15:46;3.55;;;2.65;;
14778;SDS011;7481;53.750;10.570;2023-05-07T11:21:41;2.60;;;2.40;;
14778;SDS011;7481;53.750;10.570;2023-05-07T11:24:29;2.22;;;2.03;;
14778;SDS011;7481;53.750;10.570;2023-05-07T11:27:28;2.55;;;2.25;;
14778;SDS011;7481;53.750;10.570;2023-05-07T11:30:18;3.60;;;2.13;;
14778;SDS011;7481;53.750;10.570;2023-05-07T11:33:06;2.20;;;2.00;;
14778;SDS011;7481;53.750;10.570;2023-05-07T11:35:53;2.38;;;2.10;;
14778;SDS011;7481;53.750;10.570;2023-05-07T11:38:41;3.28;;;2.25;;
14778;SDS011;7481;53.750;10.570;2023-05-07T11:41:35;2.20;;;2.00;;
14778;SDS011;7481;53.750;10.570;2023-05-07T11:44:40;4.30;;;2.15;;
14778;SDS011;7481;53.750;10.570;2023-05-07T11:47:29;2.38;;;2.10;;
14778;SDS011;7481;53.750;10.570;2023-05-07T11:50:17;2.40;;;2.20;;
14778;SDS011;7481;53.750;10.570;2023-05-07T11:53:08;2.60;;;2.40;;
14778;SDS011;7481;53.750;10.570;2023-05-07T11:55:55;2.60;;;2.17;;
14778;SDS011;7481;53.750;10.570;2023-05-07T11:58:43;3.22;;;2.30;;
14778;SDS011;7481;53.750;10.570;2023-05-07T12:01:31;3.08;;;2.30;;
14778;SDS011;7481;53.750;10.570;2023-05-07T12:04:21;4.22;;;2.17;;
14778;SDS011;7481;53.750;10.570;2023-05-07T12:07:12;2.45;;;2.00;;
14778;SDS011;7481;53.750;10.570;2023-05-07T12:10:04;2.75;;;2.33;;
14778;SDS011;7481;53.750;10.570;2023-05-07T12:12:51;2.50;;;2.30;;
14778;SDS011;7481;53.750;10.570;2023-05-07T12:15:39;3.13;;;2.10;;
14778;SDS011;7481;53.750;10.570;2023-05-07T12:18:26;3.30;;;2.20;;
14778;SDS011;7481;53.750;10.570;2023-05-07T12:21:14;3.05;;;2.05;;
14778;SDS011;7481;53.750;10.570;2023-05-07T12:24:04;2.95;;;2.10;;
14778;SDS011;7481;53.750;10.570;2023-05-07T12:26:51;2.53;;;2.25;;
14778;SDS011;7481;53.750;10.570;2023-05-07T12:29:38;2.50;;;2.08;;
14778;SDS011;7481;53.750;10.570;2023-05-07T12:32:27;2.65;;;2.20;;
14778;SDS011;7481;53.750;10.570;2023-05-07T12:35:14;3.90;;;2.55;;
14778;SDS011;7481;53.750;10.570;2023-05-07T12:38:02;2.35;;;2.03;;
14778;SDS011;7481;53.750;10.570;2023-05-07T12:40:53;3.83;;;2.20;;
14778;SDS011;7481;53.750;10.570;2023-05-07T12:43:43;2.45;;;2.17;;
14778;SDS011;7481;53.750;10.570;2023-05-07T12:46:31;3.15;;;2.10;;
14778;SDS011;7481;53.750;10.570;2023-05-07T12:49:19;2.22;;;1.95;;
14778;SDS011;7481;53.750;10.570;2023-05-07T12:52:11;2.33;;;2.13;;
14778;SDS011;7481;53.750;10.570;2023-05-07T12:55:03;3.13;;;2.45;;
14778;SDS011;7481;53.750;10.570;2023-05-07T12:57:52;2.53;;;2.30;;
14778;SDS011;7481;53.750;10.570;2023-05-07T13:00:40;2.60;;;2.13;;
14778;SDS011;7481;53.750;10.570;2023-05-07T13:03:35;2.40;;;2.10;;
14778;SDS011;7481;53.750;10.570;2023-05-07T13:06:23;2.85;;;2.20;;
14778;SDS011;7481;53.750;10.570;2023-05-07T13:09:11;2.72;;;2.40;;
14778;SDS011;7481;53.750;10.570;2023-05-07T13:11:58;2.60;;;2.00;;
14778;SDS011;7481;53.750;10.570;2023-05-07T13:14:47;3.13;;;2.20;;
14778;SDS011;7481;53.750;10.570;2023-05-07T13:17:35;5.65;;;2.42;;
14778;SDS011;7481;53.750;10.570;2023-05-07T13:20:22;3.40;;;2.00;;
14778;SDS011;7481;53.750;10.570;2023-05-07T13:23:10;2.78;;;2.30;;
14778;SDS011;7481;53.750;10.570;2023-05-07T13:25:57;3.20;;;2.22;;
14778;SDS011;7481;53.750;10.570;2023-05-07T13:28:49;2.75;;;2.38;;
14778;SDS011;7481;53.750;10.570;2023-05-07T13:31:37;2.38;;;2.17;;
14778;SDS011;7481;53.750;10.570;2023-05-07T13:34:29;2.10;;;1.88;;
14778;SDS011;7481;53.750;10.570;2023-05-07T13:37:16;2.25;;;2.05;;
14778;SDS011;7481;53.750;10.570;2023-05-07T13:40:06;2.92;;;2.30;;
14778;SDS011;7481;53.750;10.570;2023-05-07T13:42:56;3.08;;;2.20;;
14778;SDS011;7481;53.750;10.570;2023-05-07T13:45:44;2.20;;;2.00;;
14778;SDS011;7481;53.750;10.570;2023-05-07T13:48:32;2.25;;;2.05;;
14778;SDS011;7481;53.750;10.570;2023-05-07T13:51:19;3.88;;;2.05;;
14778;SDS011;7481;53.750;10.570;2023-05-07T13:54:06;3.60;;;2.17;;
14778;SDS011;7481;53.750;10.570;2023-05-07T13:56:54;2.47;;;2.28;;
14778;SDS011;7481;53.750;10.570;2023-05-07T13:59:42;3.95;;;2.58;;
14778;SDS011;7481;53.750;10.570;2023-05-07T14:02:29;3.17;;;2.45;;
14778;SDS011;7481;53.750;10.570;2023-05-07T14:05:17;2.85;;;2.42;;
14778;SDS011;7481;53.750;10.570;2023-05-07T14:08:04;3.00;;;2.10;;
14778;SDS011;7481;53.750;10.570;2023-05-07T14:10:54;2.53;;;2.20;;
14778;SDS011;7481;53.750;10.570;2023-05-07T14:13:41;2.97;;;2.10;;
14778;SDS011;7481;53.750;10.570;2023-05-07T14:16:28;3.55;;;2.10;;
14778;SDS011;7481;53.750;10.570;2023-05-07T14:19:17;3.67;;;2.00;;
14778;SDS011;7481;53.750;10.570;2023-05-07T14:22:04;2.28;;;2.00;;
14778;SDS011;7481;53.750;10.570;2023-05-07T14:24:51;2.40;;;2.20;;
14778;SDS011;7481;53.750;10.570;2023-05-07T14:27:52;2.63;;;2.40;;
14778;SDS011;7481;53.750;10.570;2023-05-07T14:30:40;2.28;;;2.00;;
14778;SDS011;7481;53.750;10.570;2023-05-07T14:33:27;3.22;;;2.50;;
14778;SDS011;7481;53.750;10.570;2023-05-07T14:36:15;3.50;;;2.40;;
14778;SDS011;7481;53.750;10.570;2023-05-07T14:39:02;3.40;;;2.40;;
14778;SDS011;7481;53.750;10.570;2023-05-07T14:41:50;3.47;;;2.20;;
14778;SDS011;7481;53.750;10.570;2023-05-07T14:44:37;4.18;;;2.50;;
14778;SDS011;7481;53.750;10.570;2023-05-07T14:47:26;2.45;;;2.10;;
14778;SDS011;7481;53.750;10.570;2023-05-07T14:50:14;2.20;;;2.00;;
14778;SDS011;7481;53.750;10.570;2023-05-07T14:53:01;3.60;;;2.38;;
14778;SDS011;7481;53.750;10.570;2023-05-07T14:55:49;2.47;;;2.28;;
14778;SDS011;7481;53.750;10.570;2023-05-07T14:58:36;3.65;;;2.22;;
14778;SDS011;7481;53.750;10.570;2023-05-07T15:01:25;3.25;;;2.22;;
14778;SDS011;7481;53.750;10.570;2023-05-07T15:04:12;2.50;;;2.30;;
14778;SDS011;7481;53.750;10.570;2023-05-07T15:07:00;2.50;;;2.25;;
14778;SDS011;7481;53.750;10.570;2023-05-07T15:09:48;2.83;;;2.28;;
14778;SDS011;7481;53.750;10.570;2023-05-07T15:12:36;2.53;;;2.33;;
14778;SDS011;7481;53.750;10.570;2023-05-07T15:15:24;3.00;;;2.20;;
14778;SDS011;7481;53.750;10.570;2023-05-07T15:18:12;2.30;;;2.10;;
14778;SDS011;7481;53.750;10.570;2023-05-07T15:21:00;2.42;;;2.20;;
14778;SDS011;7481;53.750;10.570;2023-05-07T15:23:47;3.08;;;2.20;;
14778;SDS011;7481;53.750;10.570;2023-05-07T15:26:35;2.67;;;1.90;;
14778;SDS011;7481;53.750;10.570;2023-05-07T15:29:22;2.78;;;2.20;;
14778;SDS011;7481;53.750;10.570;2023-05-07T15:32:10;3.70;;;2.35;;
14778;SDS011;7481;53.750;10.570;2023-05-07T15:34:57;3.35;;;2.45;;
14778;SDS011;7481;53.750;10.570;2023-05-07T15:37:44;2.50;;;2.20;;
14778;SDS011;7481;53.750;10.570;2023-05-07T15:40:32;2.83;;;2.53;;
14778;SDS011;7481;53.750;10.570;2023-05-07T15:43:21;3.42;;;2.38;;
14778;SDS011;7481;53.750;10.570;2023-05-07T15:46:09;3.47;;;2.63;;
14778;SDS011;7481;53.750;10.570;2023-05-07T15:48:56;2.72;;;2.40;;
14778;SDS011;7481;53.750;10.570;2023-05-07T15:51:44;3.63;;;2.67;;
14778;SDS011;7481;53.750;10.570;2023-05-07T15:54:31;4.15;;;2.10;;
14778;SDS011;7481;53.750;10.570;2023-05-07T15:57:19;4.75;;;2.40;;
14778;SDS011;7481;53.750;10.570;2023-05-07T16:00:07;2.83;;;2.20;;
14778;SDS011;7481;53.750;10.570;2023-05-07T16:02:55;4.20;;;2.13;;
14778;SDS011;7481;53.750;10.570;2023-05-07T16:05:43;3.47;;;2.20;;
14778;SDS011;7481;53.750;10.570;2023-05-07T16:08:30;2.38;;;2.15;;
14778;SDS011;7481;53.750;10.570;2023-05-07T16:11:19;2.75;;;2.17;;
14778;SDS011;7481;53.750;10.570;2023-05-07T16:14:06;3.75;;;2.00;;
14778;SDS011;7481;53.750;10.570;2023-05-07T16:16:54;4.30;;;2.15;;
14778;SDS011;7481;53.750;10.570;2023-05-07T16:19:42;2.17;;;1.98;;
14778;SDS011;7481;53.750;10.570;2023-05-07T16:22:29;2.95;;;2.13;;
14778;SDS011;7481;53.750;10.570;2023-05-07T16:25:17;2.83;;;2.30;;
14778;SDS011;7481;53.750;10.570;2023-05-07T16:28:04;3.67;;;2.40;;
14778;SDS011;7481;53.750;10.570;2023-05-07T16:30:53;4.03;;;2.45;;
14778;SDS011;7481;53.750;10.570;2023-05-07T16:33:40;3.53;;;2.58;;
14778;SDS011;7481;53.750;10.570;2023-05-07T16:36:27;2.80;;;2.50;;
14778;SDS011;7481;53.750;10.570;2023-05-07T16:39:15;6.20;;;3.95;;
14778;SDS011;7481;53.750;10.570;2023-05-07T16:42:02;2.35;;;2.00;;
14778;SDS011;7481;53.750;10.570;2023-05-07T16:44:50;6.10;;;2.73;;
14778;SDS011;7481;53.750;10.570;2023-05-07T16:47:37;4.03;;;2.40;;
14778;SDS011;7481;53.750;10.570;2023-05-07T16:50:25;3.53;;;2.13;;
14778;SDS011;7481;53.750;10.570;2023-05-07T16:53:12;4.03;;;2.38;;
14778;SDS011;7481;53.750;10.570;2023-05-07T16:56:03;3.80;;;2.60;;
14778;SDS011;7481;53.750;10.570;2023-05-07T16:58:50;3.33;;;2.20;;